Airfield :







YOU CAN JOIN US ON...

 
LOGIN :

Register | Disclaimer

   EN    FR    IT 

 









Legend :    VFR   Marginal VFR   IFR   Intensive IFR   Very Intensive IFR
Visi :
Ceiling :
>= 8 km
>= 3000ft
5 to 8 km
1000 to 3000 ft
1500m to 5 km
500 to 1000 ft
800 to 1500m
200 to 500 ft
< 800m
< 200 ft
Symbols :   Thunderstorms  Fog  Heavy snow  Heavy precipitations  Wind > 20 kt






- Airport Elevation : 100 ft
- IATA code : PSM


KPSM - Portsmouth International at Pease

CURRENT METAR :
  • 211355Z 25004KT 10SM BKN250 19/14 A2995 RMK AO2A SLP145 T01870142

EXPIRED METARs :
  • 211310Z 00000KT 10SM SCT006 BKN250 16/13 A2996 RMK AO2A SLP148
  • 211255Z 26004KT 10SM BKN006 BKN250 16/13 A2996 RMK AO2A SLP148 T01550128
  • 211242Z 24004KT 10SM BKN004 BKN250 15/13 A2997 RMK AO2A SLP151
  • 211217Z 25005KT 3SM BR OVC003 14/13 A2997 RMK AO2A SLP151
  • 211155Z 00000KT 1 1/2SM BR OVC001 13/12 A2997 RMK AO2A SLP152 T01280117 10130 20099 52006
  • 211137Z 23005KT 3/4SM R34/P6000FT BR OVC002 13/12 A2997 RMK AO2A SLP151
  • 211114Z 21005KT 1/4SM R34/P6000FT FG VV002 12/11 A2996 RMK AO2A SLP148
  • 211055Z 20003KT 1 1/2SM BR OVC003 12/11 A2996 RMK AO2A SLP148 T01200109

TAF KPSM
Valid from the 21 at 12:00 until the 22 at 12:00 UTC


211157Z 2112/2212 00000KT 1 1/2SM BR OVC001
FM211300 16007KT P6SM BKN250
FM220000 19004KT P6SM BKN200
KZBW FIR / North America



MET'MAP, your aeronautical weather chart ! - Copyright ORBIFLY December 2007 - Disclaimer

ORBIFLY MET'MAP TEAM :

Programming & Development : Alexandra Zaïnal
Original concept : Baudouin d'Aumeries
Technical & hardware support : Manuel Goepfert
Assistance : Marc-Olivier Méhu




SOURCES & CREDITS :

   NOAA